Terminal Aerodrome Forecast
Issued by NWS

Home | Current Version | Previous Version | Text Only | Print | Product List | Glossary On
Versions: 1 2 3 4 5 6 7 8 9 10 11 12 13 14 15 16 17 18
000
FTUS43 KILX 190526
TAFBMI
TAF
KBMI 190526Z 1906/2006 07010KT P6SM BKN150
     FM191200 08009KT P6SM VCSH SCT020 OVC050
     FM191600 06010KT 5SM -RA BR OVC020
     FM192000 35008KT 5SM -RA BR OVC020=

USA.gov is the U.S. government's official web portal to all federal, state and local government web resources and services.